createdAt,value
2023-02-27T00:09:36.507Z,1.73
2023-02-27T00:19:38.909Z,2.03
2023-02-27T00:29:41.080Z,1.70
2023-02-27T00:39:43.310Z,1.53
2023-02-27T00:49:45.902Z,1.90
2023-02-27T00:59:48.652Z,2.07
2023-02-27T01:09:50.980Z,2.27
2023-02-27T01:19:53.288Z,2.20
2023-02-27T01:29:57.833Z,2.37
2023-02-27T01:39:59.984Z,2.37
2023-02-27T01:50:02.319Z,2.67
2023-02-27T02:00:06.715Z,3.03
2023-02-27T02:10:16.386Z,2.80
2023-02-27T02:20:56.049Z,1.83
2023-02-27T02:31:22.853Z,2.00
2023-02-27T02:41:50.833Z,2.80
2023-02-27T02:52:14.453Z,1.83
2023-02-27T03:02:21.386Z,2.13
2023-02-27T03:12:25.014Z,2.00
2023-02-27T03:22:32.711Z,2.17
2023-02-27T03:32:42.567Z,2.37
2023-02-27T03:42:55.117Z,2.10
2023-02-27T03:53:11.648Z,2.03
2023-02-27T04:03:14.175Z,1.90
2023-02-27T04:13:54.372Z,1.90
2023-02-27T04:24:16.143Z,1.90
2023-02-27T04:34:18.225Z,2.03
2023-02-27T04:44:21.739Z,1.53
2023-02-27T04:55:09.630Z,2.33
2023-02-27T05:05:16.457Z,2.67
2023-02-27T05:15:40.429Z,2.17
2023-02-27T05:25:52.464Z,1.93
2023-02-27T05:36:43.052Z,2.17
2023-02-27T05:46:50.066Z,2.53
2023-02-27T05:56:54.299Z,2.67
2023-02-27T06:06:57.199Z,2.30
2023-02-27T06:17:00.511Z,3.13
2023-02-27T06:27:02.898Z,2.33
2023-02-27T06:37:04.974Z,2.20
2023-02-27T06:47:07.278Z,2.30
2023-02-27T06:57:09.377Z,2.93
2023-02-27T07:07:35.189Z,3.20
2023-02-27T07:17:33.670Z,2.53
2023-02-27T07:27:35.864Z,3.10
2023-02-27T07:37:38.244Z,2.70
2023-02-27T07:47:40.623Z,2.40
2023-02-27T07:57:44.661Z,2.30
2023-02-27T08:07:46.841Z,2.50
2023-02-27T08:17:48.984Z,2.07
2023-02-27T08:27:52.124Z,1.93
2023-02-27T08:37:54.214Z,2.50
2023-02-27T08:47:56.586Z,2.53
2023-02-27T08:57:58.685Z,2.37
2023-02-27T09:08:04.617Z,2.60
2023-02-27T09:18:07.058Z,2.30
2023-02-27T09:28:09.212Z,1.90
2023-02-27T09:38:12.386Z,2.03
2023-02-27T09:48:36.683Z,1.60
2023-02-27T09:58:47.791Z,1.57
2023-02-27T10:09:11.653Z,1.27
2023-02-27T10:19:17.338Z,1.20
2023-02-27T10:29:36.654Z,1.10
2023-02-27T10:39:52.608Z,1.63
2023-02-27T10:49:56.706Z,1.23
2023-02-27T11:00:09.779Z,1.50
2023-02-27T11:10:15.265Z,1.10
2023-02-27T11:20:29.807Z,1.03
2023-02-27T11:30:32.156Z,1.13
2023-02-27T11:40:37.663Z,1.10
2023-02-27T11:50:48.694Z,0.97
2023-02-27T12:00:54.954Z,0.90
2023-02-27T12:11:13.701Z,0.80
2023-02-27T12:21:21.950Z,1.47
2023-02-27T12:31:36.304Z,0.70
2023-02-27T12:41:50.516Z,0.80
2023-02-27T12:52:35.215Z,0.83
2023-02-27T13:02:58.905Z,0.80
2023-02-27T13:13:08.800Z,0.53
2023-02-27T13:23:20.719Z,0.70
2023-02-27T13:33:34.592Z,0.80
2023-02-27T13:43:51.069Z,1.40
2023-02-27T13:54:19.730Z,1.23
2023-02-27T14:04:26.364Z,1.10
2023-02-27T14:14:41.355Z,0.87
2023-02-27T14:25:33.759Z,1.03
2023-02-27T14:35:36.076Z,1.13
2023-02-27T14:45:38.467Z,0.80
2023-02-27T14:55:41.363Z,1.50
2023-02-27T15:05:43.716Z,1.13
2023-02-27T15:15:46.144Z,1.17
2023-02-27T15:25:49.458Z,1.13
2023-02-27T15:35:52.970Z,0.87
2023-02-27T15:45:58.142Z,0.60
2023-02-27T15:56:09.673Z,1.17
2023-02-27T16:06:20.643Z,0.80
2023-02-27T16:16:23.021Z,0.70
2023-02-27T16:26:36.646Z,0.60
2023-02-27T16:36:41.102Z,0.60
2023-02-27T16:46:44.229Z,1.20
2023-02-27T16:56:47.379Z,1.60
2023-02-27T17:06:49.759Z,1.23
2023-02-27T17:16:52.072Z,2.40
2023-02-27T17:26:54.528Z,2.97
2023-02-27T17:36:56.737Z,1.83
2023-02-27T17:46:58.923Z,7.20
2023-02-27T17:57:01.187Z,5.50
2023-02-27T18:07:03.780Z,2.00
2023-02-27T18:17:11.722Z,1.53
2023-02-27T18:27:14.084Z,2.20
2023-02-27T18:37:16.355Z,2.90
2023-02-27T18:47:22.094Z,3.97
2023-02-27T18:57:24.956Z,2.93
2023-02-27T19:07:29.501Z,1.90
2023-02-27T19:17:33.691Z,2.33
2023-02-27T19:27:36.018Z,2.23
2023-02-27T19:37:39.716Z,2.40
2023-02-27T19:47:42.012Z,1.90
2023-02-27T19:57:44.819Z,2.10
2023-02-27T20:07:49.349Z,2.10
2023-02-27T20:17:51.483Z,2.87
2023-02-27T20:27:54.347Z,2.80
2023-02-27T20:37:56.731Z,2.27
2023-02-27T20:47:58.824Z,2.70
2023-02-27T20:58:01.188Z,2.00
2023-02-27T21:08:03.566Z,2.90
2023-02-27T21:18:05.711Z,2.73
2023-02-27T21:28:08.358Z,2.40
2023-02-27T21:38:10.470Z,2.57
2023-02-27T21:48:12.866Z,2.77
2023-02-27T21:58:15.141Z,2.13
2023-02-27T22:08:17.263Z,2.60
2023-02-27T22:18:20.262Z,2.50
2023-02-27T22:28:23.185Z,2.33
2023-02-27T22:38:25.349Z,2.90
2023-02-27T22:48:27.904Z,2.47
2023-02-27T22:58:31.254Z,2.20
2023-02-27T23:08:33.508Z,2.10
2023-02-27T23:18:35.805Z,2.00
2023-02-27T23:28:38.341Z,1.53
2023-02-27T23:38:42.042Z,1.20
2023-02-27T23:48:44.267Z,1.03
2023-02-27T23:58:46.628Z,1.40
